sensor_id;sensor_type;location;lat;lon;timestamp;pressure;altitude;pressure_sealevel;temperature;humidity
17950;BME280;9100;48.700;9.316;2023-04-28T00:00:29;97612.40000000001;;;13.08;100
17950;BME280;9100;48.700;9.316;2023-04-28T00:01:28;97614.20000000001;;;13.08;100
17950;BME280;9100;48.700;9.316;2023-04-28T00:02:28;97604.9;;;13.07;100
17950;BME280;9100;48.700;9.316;2023-04-28T00:03:29;97601.8;;;13.05;100
17950;BME280;9100;48.700;9.316;2023-04-28T00:04:28;97606.1;;;13.04;100
17950;BME280;9100;48.700;9.316;2023-04-28T00:04:45;97601.2;;;13.03;100
17950;BME280;9100;48.700;9.316;2023-04-28T00:05:29;97607.3;;;13.02;100
17950;BME280;9100;48.700;9.316;2023-04-28T00:06:28;97600.59999999999;;;13.01;100
17950;BME280;9100;48.700;9.316;2023-04-28T00:07:29;97604.1;;;13;100
17950;BME280;9100;48.700;9.316;2023-04-28T00:08:29;97602.8;;;12.97;100
17950;BME280;9100;48.700;9.316;2023-04-28T00:09:29;97602.09999999999;;;12.95;100
17950;BME280;9100;48.700;9.316;2023-04-28T00:09:45;97595.2;;;12.96;100
17950;BME280;9100;48.700;9.316;2023-04-28T00:10:29;97589.09999999999;;;12.97;100
17950;BME280;9100;48.700;9.316;2023-04-28T00:11:29;97590.7;;;12.98;100
17950;BME280;9100;48.700;9.316;2023-04-28T00:12:29;97594.3;;;12.97;100
17950;BME280;9100;48.700;9.316;2023-04-28T00:13:29;97591.09999999999;;;12.95;100
17950;BME280;9100;48.700;9.316;2023-04-28T00:14:29;97594.6;;;12.94;100
17950;BME280;9100;48.700;9.316;2023-04-28T00:14:46;97591.5;;;12.92;100
17950;BME280;9100;48.700;9.316;2023-04-28T00:15:28;97596.6;;;12.92;100
17950;BME280;9100;48.700;9.316;2023-04-28T00:16:28;97589.09999999999;;;12.9;100
17950;BME280;9100;48.700;9.316;2023-04-28T00:17:28;97597;;;12.89;100
17950;BME280;9100;48.700;9.316;2023-04-28T00:18:29;97591.3;;;12.87;100
17950;BME280;9100;48.700;9.316;2023-04-28T00:19:29;97584.6;;;12.86;100
17950;BME280;9100;48.700;9.316;2023-04-28T00:19:45;97587.09999999999;;;12.86;100
17950;BME280;9100;48.700;9.316;2023-04-28T00:20:29;97583.6;;;12.87;100
17950;BME280;9100;48.700;9.316;2023-04-28T00:21:29;97573.29999999999;;;12.87;100
17950;BME280;9100;48.700;9.316;2023-04-28T00:22:28;97571.7;;;12.86;100
17950;BME280;9100;48.700;9.316;2023-04-28T00:23:28;97563.5;;;12.84;100
17950;BME280;9100;48.700;9.316;2023-04-28T00:24:29;97564;;;12.79;100
17950;BME280;9100;48.700;9.316;2023-04-28T00:24:45;97571.5;;;12.81;100
17950;BME280;9100;48.700;9.316;2023-04-28T00:25:28;97574.1;;;12.81;100
17950;BME280;9100;48.700;9.316;2023-04-28T00:26:28;97568.9;;;12.81;100
17950;BME280;9100;48.700;9.316;2023-04-28T00:27:29;97573.5;;;12.79;100
17950;BME280;9100;48.700;9.316;2023-04-28T00:28:29;97575.3;;;12.78;100
17950;BME280;9100;48.700;9.316;2023-04-28T00:29:28;97564.20000000001;;;12.78;100
17950;BME280;9100;48.700;9.316;2023-04-28T00:29:47;97566.2;;;12.76;100
17950;BME280;9100;48.700;9.316;2023-04-28T00:30:28;97567.7;;;12.77;100
17950;BME280;9100;48.700;9.316;2023-04-28T00:31:28;97559.1;;;12.78;100
17950;BME280;9100;48.700;9.316;2023-04-28T00:32:28;97567.7;;;12.77;100
17950;BME280;9100;48.700;9.316;2023-04-28T00:33:28;97561.1;;;12.76;100
17950;BME280;9100;48.700;9.316;2023-04-28T00:34:31;97559.5;;;12.75;100
17950;BME280;9100;48.700;9.316;2023-04-28T00:34:45;97565.4;;;12.75;100
17950;BME280;9100;48.700;9.316;2023-04-28T00:35:28;97559.7;;;12.73;100
17950;BME280;9100;48.700;9.316;2023-04-28T00:36:28;97563;;;12.74;100
17950;BME280;9100;48.700;9.316;2023-04-28T00:37:28;97564;;;12.73;100
17950;BME280;9100;48.700;9.316;2023-04-28T00:38:29;97565.59999999999;;;12.74;100
17950;BME280;9100;48.700;9.316;2023-04-28T00:39:29;97569.7;;;12.75;100
17950;BME280;9100;48.700;9.316;2023-04-28T00:39:45;97565.59999999999;;;12.74;100
17950;BME280;9100;48.700;9.316;2023-04-28T00:40:31;97561.1;;;12.76;100
17950;BME280;9100;48.700;9.316;2023-04-28T00:41:29;97565.20000000001;;;12.77;100
17950;BME280;9100;48.700;9.316;2023-04-28T00:42:29;97570.8;;;12.8;100
17950;BME280;9100;48.700;9.316;2023-04-28T00:43:29;97574.1;;;12.81;100
17950;BME280;9100;48.700;9.316;2023-04-28T00:44:29;97561.2;;;12.81;100
17950;BME280;9100;48.700;9.316;2023-04-28T00:44:45;97564.59999999999;;;12.81;100
17950;BME280;9100;48.700;9.316;2023-04-28T00:45:28;97557.5;;;12.83;100
17950;BME280;9100;48.700;9.316;2023-04-28T00:46:29;97556.3;;;12.86;100
17950;BME280;9100;48.700;9.316;2023-04-28T00:47:28;97551.2;;;12.86;100
17950;BME280;9100;48.700;9.316;2023-04-28T00:48:28;97557.9;;;12.87;100
17950;BME280;9100;48.700;9.316;2023-04-28T00:49:28;97559.5;;;12.88;100
17950;BME280;9100;48.700;9.316;2023-04-28T00:49:45;97547.7;;;12.87;100
17950;BME280;9100;48.700;9.316;2023-04-28T00:50:29;97554.3;;;12.88;100
17950;BME280;9100;48.700;9.316;2023-04-28T00:51:28;97560.1;;;12.9;100
17950;BME280;9100;48.700;9.316;2023-04-28T00:52:28;97562.3;;;12.93;100
17950;BME280;9100;48.700;9.316;2023-04-28T00:53:29;97557.9;;;12.93;100
17950;BME280;9100;48.700;9.316;2023-04-28T00:54:28;97563.09999999999;;;12.93;100
17950;BME280;9100;48.700;9.316;2023-04-28T00:54:45;97567.2;;;12.94;100
17950;BME280;9100;48.700;9.316;2023-04-28T00:55:29;97561.1;;;12.95;100
17950;BME280;9100;48.700;9.316;2023-04-28T00:56:29;97567;;;12.96;100
17950;BME280;9100;48.700;9.316;2023-04-28T00:57:29;97562.90000000001;;;12.95;100
17950;BME280;9100;48.700;9.316;2023-04-28T00:58:29;97566.4;;;12.94;100
17950;BME280;9100;48.700;9.316;2023-04-28T00:59:29;97562.3;;;12.93;100
17950;BME280;9100;48.700;9.316;2023-04-28T00:59:45;97558.7;;;12.94;100
17950;BME280;9100;48.700;9.316;2023-04-28T01:00:29;97557.9;;;12.93;100
17950;BME280;9100;48.700;9.316;2023-04-28T01:01:29;97555.2;;;12.95;100
17950;BME280;9100;48.700;9.316;2023-04-28T01:02:29;97555.9;;;12.95;100
17950;BME280;9100;48.700;9.316;2023-04-28T01:03:29;97558.3;;;12.97;100
17950;BME280;9100;48.700;9.316;2023-04-28T01:04:29;97555.8;;;12.97;100
17950;BME280;9100;48.700;9.316;2023-04-28T01:04:45;97554.2;;;12.96;100
17950;BME280;9100;48.700;9.316;2023-04-28T01:05:29;97554.8;;;12.98;100
17950;BME280;9100;48.700;9.316;2023-04-28T01:06:29;97550.40000000001;;;12.98;100
17950;BME280;9100;48.700;9.316;2023-04-28T01:07:29;97552.8;;;13;100
17950;BME280;9100;48.700;9.316;2023-04-28T01:08:29;97549.40000000001;;;12.99;100
17950;BME280;9100;48.700;9.316;2023-04-28T01:09:29;97534.3;;;12.91;100
17950;BME280;9100;48.700;9.316;2023-04-28T01:09:45;97550.2;;;13;100
17950;BME280;9100;48.700;9.316;2023-04-28T01:10:29;97545.9;;;13;100
17950;BME280;9100;48.700;9.316;2023-04-28T01:11:29;97544.1;;;13.01;100
17950;BME280;9100;48.700;9.316;2023-04-28T01:12:29;97542.5;;;13;100
17950;BME280;9100;48.700;9.316;2023-04-28T01:13:29;97540.7;;;13;100
17950;BME280;9100;48.700;9.316;2023-04-28T01:14:29;97535.79999999999;;;12.99;100
17950;BME280;9100;48.700;9.316;2023-04-28T01:14:45;97539.4;;;12.98;100
17950;BME280;9100;48.700;9.316;2023-04-28T01:15:29;97537.59999999999;;;12.98;100
17950;BME280;9100;48.700;9.316;2023-04-28T01:16:29;97539.4;;;12.98;100
17950;BME280;9100;48.700;9.316;2023-04-28T01:17:29;97538.59999999999;;;12.97;100
17950;BME280;9100;48.700;9.316;2023-04-28T01:18:29;97537.8;;;12.97;100
17950;BME280;9100;48.700;9.316;2023-04-28T01:19:29;97543.7;;;12.97;100
17950;BME280;9100;48.700;9.316;2023-04-28T01:19:45;97545.5;;;12.97;100
17950;BME280;9100;48.700;9.316;2023-04-28T01:20:29;97548.1;;;12.97;100
17950;BME280;9100;48.700;9.316;2023-04-28T01:21:29;97542.9;;;12.97;100
17950;BME280;9100;48.700;9.316;2023-04-28T01:22:29;97541.7;;;12.99;100
17950;BME280;9100;48.700;9.316;2023-04-28T01:23:29;97540;;;13;100
17950;BME280;9100;48.700;9.316;2023-04-28T01:24:29;97538.2;;;13;100
17950;BME280;9100;48.700;9.316;2023-04-28T01:24:45;97541.5;;;13.01;100
17950;BME280;9100;48.700;9.316;2023-04-28T01:25:29;97550.8;;;13.02;100
17950;BME280;9100;48.700;9.316;2023-04-28T01:26:28;97537;;;13.03;100
17950;BME280;9100;48.700;9.316;2023-04-28T01:27:29;97546.7;;;13.01;100
17950;BME280;9100;48.700;9.316;2023-04-28T01:28:29;97540.59999999999;;;13.02;100
17950;BME280;9100;48.700;9.316;2023-04-28T01:29:29;97544.1;;;13.01;100
17950;BME280;9100;48.700;9.316;2023-04-28T01:29:45;97533.1;;;13;100
17950;BME280;9100;48.700;9.316;2023-04-28T01:30:29;97538.2;;;13;100
17950;BME280;9100;48.700;9.316;2023-04-28T01:31:29;97533.8;;;13.01;100
17950;BME280;9100;48.700;9.316;2023-04-28T01:32:29;97532.1;;;13.01;100
17950;BME280;9100;48.700;9.316;2023-04-28T01:33:29;97532.3;;;13;100
17950;BME280;9100;48.700;9.316;2023-04-28T01:34:29;97538.4;;;12.99;100
17950;BME280;9100;48.700;9.316;2023-04-28T01:34:45;97529.9;;;12.98;100
17950;BME280;9100;48.700;9.316;2023-04-28T01:35:29;97530.7;;;12.99;100
17950;BME280;9100;48.700;9.316;2023-04-28T01:36:29;97526.5;;;12.98;100
17950;BME280;9100;48.700;9.316;2023-04-28T01:37:29;97528.9;;;12.99;100
17950;BME280;9100;48.700;9.316;2023-04-28T01:38:29;97525.59999999999;;;12.99;100
17950;BME280;9100;48.700;9.316;2023-04-28T01:39:29;97433.3;;;12.38;100
17950;BME280;9100;48.700;9.316;2023-04-28T01:39:45;97521.40000000001;;;12.98;100
17950;BME280;9100;48.700;9.316;2023-04-28T01:40:28;97522;;;13;100
17950;BME280;9100;48.700;9.316;2023-04-28T01:41:29;97520.4;;;12.99;100
17950;BME280;9100;48.700;9.316;2023-04-28T01:42:29;97529.1;;;12.98;100
17950;BME280;9100;48.700;9.316;2023-04-28T01:43:29;97519;;;12.96;100
17950;BME280;9100;48.700;9.316;2023-04-28T01:44:29;97521.8;;;12.95;100
17950;BME280;9100;48.700;9.316;2023-04-28T01:44:45;97520;;;12.95;100
17950;BME280;9100;48.700;9.316;2023-04-28T01:45:29;97523.6;;;12.94;100
17950;BME280;9100;48.700;9.316;2023-04-28T01:46:29;97519.3;;;12.95;100
17950;BME280;9100;48.700;9.316;2023-04-28T01:47:29;97522.40000000001;;;12.97;100
17950;BME280;9100;48.700;9.316;2023-04-28T01:48:29;97517.3;;;12.97;100
17950;BME280;9100;48.700;9.316;2023-04-28T01:49:29;97516.3;;;12.98;100
17950;BME280;9100;48.700;9.316;2023-04-28T01:49:45;97512.7;;;12.99;100
17950;BME280;9100;48.700;9.316;2023-04-28T01:50:29;97515.3;;;12.99;100
17950;BME280;9100;48.700;9.316;2023-04-28T01:51:29;97520.4;;;12.99;100
17950;BME280;9100;48.700;9.316;2023-04-28T01:52:29;97513.7;;;12.98;100
17950;BME280;9100;48.700;9.316;2023-04-28T01:53:29;97514.70000000001;;;12.97;100
17950;BME280;9100;48.700;9.316;2023-04-28T01:54:29;97512.7;;;12.92;100
17950;BME280;9100;48.700;9.316;2023-04-28T01:54:45;97530.3;;;12.95;100
17950;BME280;9100;48.700;9.316;2023-04-28T01:55:29;97514.09999999999;;;12.95;100
17950;BME280;9100;48.700;9.316;2023-04-28T01:56:29;97522.79999999999;;;12.94;100
17950;BME280;9100;48.700;9.316;2023-04-28T01:57:29;97516.9;;;12.93;100
17950;BME280;9100;48.700;9.316;2023-04-28T01:58:29;97506.8;;;12.92;100
17950;BME280;9100;48.700;9.316;2023-04-28T01:59:29;97506.8;;;12.92;100
17950;BME280;9100;48.700;9.316;2023-04-28T01:59:45;97507.8;;;12.91;100
17950;BME280;9100;48.700;9.316;2023-04-28T02:00:29;97507.4;;;12.94;100
17950;BME280;9100;48.700;9.316;2023-04-28T02:01:29;97507.4;;;12.94;100
17950;BME280;9100;48.700;9.316;2023-04-28T02:02:29;97500.7;;;12.93;100
17950;BME280;9100;48.700;9.316;2023-04-28T02:03:29;97503.8;;;12.95;100
17950;BME280;9100;48.700;9.316;2023-04-28T02:04:29;97500.3;;;12.96;100
17950;BME280;9100;48.700;9.316;2023-04-28T02:04:45;97505.4;;;12.96;100
17950;BME280;9100;48.700;9.316;2023-04-28T02:05:29;97498.29999999999;;;12.98;100
17950;BME280;9100;48.700;9.316;2023-04-28T02:06:29;97510.2;;;12.99;100
17950;BME280;9100;48.700;9.316;2023-04-28T02:07:29;97510.90000000001;;;12.99;100
17950;BME280;9100;48.700;9.316;2023-04-28T02:08:29;97510.7;;;13.01;100
17950;BME280;9100;48.700;9.316;2023-04-28T02:09:29;97512.5;;;13;100
17950;BME280;9100;48.700;9.316;2023-04-28T02:09:45;97505.6;;;13.01;100
17950;BME280;9100;48.700;9.316;2023-04-28T02:10:29;97507.4;;;13;100
17950;BME280;9100;48.700;9.316;2023-04-28T02:11:29;97508.2;;;13.01;100
17950;BME280;9100;48.700;9.316;2023-04-28T02:12:29;97509;;;13.01;100
17950;BME280;9100;48.700;9.316;2023-04-28T02:13:29;97506.6;;;13;100
17950;BME280;9100;48.700;9.316;2023-04-28T02:14:29;97506.6;;;13;100
17950;BME280;9100;48.700;9.316;2023-04-28T02:14:45;97505.8;;;12.99;100
17950;BME280;9100;48.700;9.316;2023-04-28T02:15:29;97506.6;;;13;100
17950;BME280;9100;48.700;9.316;2023-04-28T02:16:29;97503.8;;;13.01;100
17950;BME280;9100;48.700;9.316;2023-04-28T02:17:29;97496.1;;;13.01;100
17950;BME280;9100;48.700;9.316;2023-04-28T02:18:29;97503.8;;;13.01;100
17950;BME280;9100;48.700;9.316;2023-04-28T02:19:29;97501.5;;;13;100
17950;BME280;9100;48.700;9.316;2023-04-28T02:19:45;97497.1;;;13;100
17950;BME280;9100;48.700;9.316;2023-04-28T02:20:29;97492.8;;;13.01;100
17950;BME280;9100;48.700;9.316;2023-04-28T02:21:29;97491.8;;;13.02;100
17950;BME280;9100;48.700;9.316;2023-04-28T02:22:29;97483.3;;;13.01;100
17950;BME280;9100;48.700;9.316;2023-04-28T02:23:29;97485.29999999999;;;12.99;100
17950;BME280;9100;48.700;9.316;2023-04-28T02:24:29;97481.3;;;12.97;100
17950;BME280;9100;48.700;9.316;2023-04-28T02:24:46;97481.3;;;12.97;100
17950;BME280;9100;48.700;9.316;2023-04-28T02:25:29;97484.7;;;12.97;100
17950;BME280;9100;48.700;9.316;2023-04-28T02:26:29;97481.7;;;12.94;100
17950;BME280;9100;48.700;9.316;2023-04-28T02:27:29;97480.1;;;12.93;100
17950;BME280;9100;48.700;9.316;2023-04-28T02:28:29;97474.40000000001;;;12.91;100
17950;BME280;9100;48.700;9.316;2023-04-28T02:29:29;97480.2;;;12.86;100
17950;BME280;9100;48.700;9.316;2023-04-28T02:29:45;97490.4;;;12.86;100
17950;BME280;9100;48.700;9.316;2023-04-28T02:30:29;97491.6;;;12.84;100
17950;BME280;9100;48.700;9.316;2023-04-28T02:31:29;97488.3;;;12.83;100
17950;BME280;9100;48.700;9.316;2023-04-28T02:32:29;97491.6;;;12.84;100
17950;BME280;9100;48.700;9.316;2023-04-28T02:33:29;97496.7;;;12.84;100
17950;BME280;9100;48.700;9.316;2023-04-28T02:34:29;97492.6;;;12.83;100
17950;BME280;9100;48.700;9.316;2023-04-28T02:34:45;97492.6;;;12.83;100
17950;BME280;9100;48.700;9.316;2023-04-28T02:35:29;97494;;;12.85;100
17950;BME280;9100;48.700;9.316;2023-04-28T02:36:29;97493.2;;;12.85;100
17950;BME280;9100;48.700;9.316;2023-04-28T02:37:29;97491.6;;;12.84;100
17950;BME280;9100;48.700;9.316;2023-04-28T02:38:29;97486.5;;;12.84;100
17950;BME280;9100;48.700;9.316;2023-04-28T02:39:29;97492.6;;;12.83;100
17950;BME280;9100;48.700;9.316;2023-04-28T02:39:45;97490;;;12.83;100
17950;BME280;9100;48.700;9.316;2023-04-28T02:40:29;97489.20000000001;;;12.82;100
17950;BME280;9100;48.700;9.316;2023-04-28T02:41:29;97490;;;12.83;100
17950;BME280;9100;48.700;9.316;2023-04-28T02:42:29;97495.1;;;12.83;100
17950;BME280;9100;48.700;9.316;2023-04-28T02:43:29;97484.90000000001;;;12.83;100
17950;BME280;9100;48.700;9.316;2023-04-28T02:44:29;97480.2;;;12.8;100
17950;BME280;9100;48.700;9.316;2023-04-28T02:44:45;97478.59999999999;;;12.79;100
17950;BME280;9100;48.700;9.316;2023-04-28T02:45:29;97476.59999999999;;;12.81;100
17950;BME280;9100;48.700;9.316;2023-04-28T02:46:29;97478.59999999999;;;12.79;100
17950;BME280;9100;48.700;9.316;2023-04-28T02:47:29;97477;;;12.78;100
17950;BME280;9100;48.700;9.316;2023-04-28T02:48:29;97479;;;12.76;100
17950;BME280;9100;48.700;9.316;2023-04-28T02:49:29;97470.7;;;12.74;100
17950;BME280;9100;48.700;9.316;2023-04-28T02:49:45;97475.2;;;12.72;100
17950;BME280;9100;48.700;9.316;2023-04-28T02:50:29;97471.7;;;12.73;100
17950;BME280;9100;48.700;9.316;2023-04-28T02:51:29;97472.6;;;12.72;100
17950;BME280;9100;48.700;9.316;2023-04-28T02:52:29;97472.79999999999;;;12.7;100
17950;BME280;9100;48.700;9.316;2023-04-28T02:53:29;97480.5;;;12.7;100
17950;BME280;9100;48.700;9.316;2023-04-28T02:54:29;97479;;;12.69;100
17950;BME280;9100;48.700;9.316;2023-04-28T02:54:45;97479.7;;;12.7;100
17950;BME280;9100;48.700;9.316;2023-04-28T02:55:29;97482.1;;;12.71;100
17950;BME280;9100;48.700;9.316;2023-04-28T02:56:29;97476.2;;;12.71;100
17950;BME280;9100;48.700;9.316;2023-04-28T02:57:29;97476.2;;;12.71;100
17950;BME280;9100;48.700;9.316;2023-04-28T02:58:29;97481.1;;;12.72;100
17950;BME280;9100;48.700;9.316;2023-04-28T02:59:29;97479.4;;;12.73;100
17950;BME280;9100;48.700;9.316;2023-04-28T02:59:45;97470.9;;;12.72;100
17950;BME280;9100;48.700;9.316;2023-04-28T03:00:29;97478.59999999999;;;12.72;100
17950;BME280;9100;48.700;9.316;2023-04-28T03:01:29;97479.4;;;12.73;100
17950;BME280;9100;48.700;9.316;2023-04-28T03:02:29;97479.9;;;12.75;100
17950;BME280;9100;48.700;9.316;2023-04-28T03:03:29;97471.5;;;12.74;100
17950;BME280;9100;48.700;9.316;2023-04-28T03:04:29;97476.59999999999;;;12.74;100
17950;BME280;9100;48.700;9.316;2023-04-28T03:04:45;97473;;;12.75;100
17950;BME280;9100;48.700;9.316;2023-04-28T03:05:29;97474.8;;;12.75;100
17950;BME280;9100;48.700;9.316;2023-04-28T03:06:29;97473.8;;;12.76;100
17950;BME280;9100;48.700;9.316;2023-04-28T03:07:29;97475.59999999999;;;12.75;100
17950;BME280;9100;48.700;9.316;2023-04-28T03:08:29;97468.7;;;12.76;100
17950;BME280;9100;48.700;9.316;2023-04-28T03:09:29;97463.59999999999;;;12.76;100
17950;BME280;9100;48.700;9.316;2023-04-28T03:09:45;97473.8;;;12.76;100
17950;BME280;9100;48.700;9.316;2023-04-28T03:10:29;97479.4;;;12.79;100
17950;BME280;9100;48.700;9.316;2023-04-28T03:11:29;97474.8;;;12.81;100
17950;BME280;9100;48.700;9.316;2023-04-28T03:12:29;97475.40000000001;;;12.83;100
17950;BME280;9100;48.700;9.316;2023-04-28T03:13:29;97471.8;;;12.84;100
17950;BME280;9100;48.700;9.316;2023-04-28T03:14:29;97469.3;;;12.84;100
17950;BME280;9100;48.700;9.316;2023-04-28T03:14:45;97478.59999999999;;;12.85;100
17950;BME280;9100;48.700;9.316;2023-04-28T03:15:29;97480.9;;;12.87;100
17950;BME280;9100;48.700;9.316;2023-04-28T03:16:29;97476.4;;;12.89;100
17950;BME280;9100;48.700;9.316;2023-04-28T03:17:29;97482.1;;;12.91;100
17950;BME280;9100;48.700;9.316;2023-04-28T03:18:29;97478.59999999999;;;12.92;100
17950;BME280;9100;48.700;9.316;2023-04-28T03:19:29;97477.59999999999;;;12.93;100
17950;BME280;9100;48.700;9.316;2023-04-28T03:19:45;97476;;;12.92;100
17950;BME280;9100;48.700;9.316;2023-04-28T03:20:29;97471.5;;;12.94;100
17950;BME280;9100;48.700;9.316;2023-04-28T03:21:29;97467.7;;;12.96;100
17950;BME280;9100;48.700;9.316;2023-04-28T03:22:29;97476.2;;;12.97;100
17950;BME280;9100;48.700;9.316;2023-04-28T03:23:29;97476.2;;;12.97;100
17950;BME280;9100;48.700;9.316;2023-04-28T03:24:29;97474.59999999999;;;12.96;100
17950;BME280;9100;48.700;9.316;2023-04-28T03:24:45;97473.8;;;12.95;100
17950;BME280;9100;48.700;9.316;2023-04-28T03:25:29;97476.59999999999;;;12.94;100
17950;BME280;9100;48.700;9.316;2023-04-28T03:26:29;97479.7;;;12.96;100
17950;BME280;9100;48.700;9.316;2023-04-28T03:27:29;97472;;;12.96;100
17950;BME280;9100;48.700;9.316;2023-04-28T03:28:29;97474;;;12.94;100
17950;BME280;9100;48.700;9.316;2023-04-28T03:29:29;97470.9;;;12.92;100
17950;BME280;9100;48.700;9.316;2023-04-28T03:29:45;97470.9;;;12.92;100
17950;BME280;9100;48.700;9.316;2023-04-28T03:30:29;97470.1;;;12.91;100
17950;BME280;9100;48.700;9.316;2023-04-28T03:31:29;97462.40000000001;;;12.91;100
17950;BME280;9100;48.700;9.316;2023-04-28T03:32:29;97465.7;;;12.92;100
17950;BME280;9100;48.700;9.316;2023-04-28T03:33:29;97469.9;;;12.93;100
17950;BME280;9100;48.700;9.316;2023-04-28T03:34:29;97464.8;;;12.93;100
17950;BME280;9100;48.700;9.316;2023-04-28T03:34:45;97473.40000000001;;;12.92;100
17950;BME280;9100;48.700;9.316;2023-04-28T03:35:29;97467.3;;;12.93;100
17950;BME280;9100;48.700;9.316;2023-04-28T03:36:29;97467.5;;;12.91;100
17950;BME280;9100;48.700;9.316;2023-04-28T03:37:29;97469.3;;;12.91;100
17950;BME280;9100;48.700;9.316;2023-04-28T03:38:29;97464.3;;;12.89;100
17950;BME280;9100;48.700;9.316;2023-04-28T03:39:29;97469.7;;;12.88;100
17950;BME280;9100;48.700;9.316;2023-04-28T03:39:45;97469.7;;;12.88;100
17950;BME280;9100;48.700;9.316;2023-04-28T03:40:29;97468.7;;;12.89;100
17950;BME280;9100;48.700;9.316;2023-04-28T03:41:29;97461;;;12.89;100
17950;BME280;9100;48.700;9.316;2023-04-28T03:42:29;97461.6;;;12.91;100
17950;BME280;9100;48.700;9.316;2023-04-28T03:43:29;97458;;;12.92;100
17950;BME280;9100;48.700;9.316;2023-04-28T03:44:29;97457.3;;;12.91;100
17950;BME280;9100;48.700;9.316;2023-04-28T03:44:45;97460.6;;;12.92;100
17950;BME280;9100;48.700;9.316;2023-04-28T03:45:29;97460.40000000001;;;12.93;100
17950;BME280;9100;48.700;9.316;2023-04-28T03:46:29;97460.2;;;12.95;100
17950;BME280;9100;48.700;9.316;2023-04-28T03:47:29;97459.6;;;12.93;100
17950;BME280;9100;48.700;9.316;2023-04-28T03:48:29;97451.3;;;12.91;100
17950;BME280;9100;48.700;9.316;2023-04-28T03:49:29;97452.3;;;12.9;100
17950;BME280;9100;48.700;9.316;2023-04-28T03:49:45;97463.59999999999;;;12.89;100
17950;BME280;9100;48.700;9.316;2023-04-28T03:50:29;97454.3;;;12.88;100
17950;BME280;9100;48.700;9.316;2023-04-28T03:51:29;97458.8;;;12.86;100
17950;BME280;9100;48.700;9.316;2023-04-28T03:52:29;97457.5;;;12.83;100
17950;BME280;9100;48.700;9.316;2023-04-28T03:53:29;97460.79999999999;;;12.84;100
17950;BME280;9100;48.700;9.316;2023-04-28T03:54:29;97449.1;;;12.81;100
17950;BME280;9100;48.700;9.316;2023-04-28T03:54:45;97450.9;;;12.81;100
17950;BME280;9100;48.700;9.316;2023-04-28T03:55:29;97457.6;;;12.82;100
17950;BME280;9100;48.700;9.316;2023-04-28T03:56:29;97456.8;;;12.81;100
17950;BME280;9100;48.700;9.316;2023-04-28T03:57:29;97460.2;;;12.82;100
17950;BME280;9100;48.700;9.316;2023-04-28T03:58:29;97456;;;12.81;100
17950;BME280;9100;48.700;9.316;2023-04-28T03:59:29;97456;;;12.81;100
17950;BME280;9100;48.700;9.316;2023-04-28T03:59:45;97456;;;12.81;100
17950;BME280;9100;48.700;9.316;2023-04-28T04:00:29;97452.5;;;12.82;100
17950;BME280;9100;48.700;9.316;2023-04-28T04:01:29;97452.5;;;12.82;100
17950;BME280;9100;48.700;9.316;2023-04-28T04:02:29;97449;;;12.83;100
17950;BME280;9100;48.700;9.316;2023-04-28T04:03:29;97451.70000000001;;;12.81;100
17950;BME280;9100;48.700;9.316;2023-04-28T04:04:29;97452.09999999999;;;12.78;100
17950;BME280;9100;48.700;9.316;2023-04-28T04:04:45;97448.7;;;12.78;100
17950;BME280;9100;48.700;9.316;2023-04-28T04:05:29;97449.7;;;12.77;100
17950;BME280;9100;48.700;9.316;2023-04-28T04:06:29;97447.2;;;12.77;100
17950;BME280;9100;48.700;9.316;2023-04-28T04:07:29;97449;;;12.76;100
17950;BME280;9100;48.700;9.316;2023-04-28T04:08:29;97445.6;;;12.76;100
17950;BME280;9100;48.700;9.316;2023-04-28T04:09:29;97441.5;;;12.75;100
17950;BME280;9100;48.700;9.316;2023-04-28T04:09:45;97442.2;;;12.75;100
17950;BME280;9100;48.700;9.316;2023-04-28T04:10:29;97440.5;;;12.76;100
17950;BME280;9100;48.700;9.316;2023-04-28T04:11:29;97442.2;;;12.75;100
17950;BME280;9100;48.700;9.316;2023-04-28T04:12:29;97449.7;;;12.77;100
17950;BME280;9100;48.700;9.316;2023-04-28T04:13:29;97442.2;;;12.75;100
17950;BME280;9100;48.700;9.316;2023-04-28T04:14:29;97442.2;;;12.75;100
17950;BME280;9100;48.700;9.316;2023-04-28T04:14:45;97441.6;;;12.73;100
17950;BME280;9100;48.700;9.316;2023-04-28T04:15:29;97435.5;;;12.74;100
17950;BME280;9100;48.700;9.316;2023-04-28T04:16:29;97446.6;;;12.75;100
17950;BME280;9100;48.700;9.316;2023-04-28T04:17:29;97442.2;;;12.75;100
17950;BME280;9100;48.700;9.316;2023-04-28T04:18:29;97443.8;;;12.76;100
17950;BME280;9100;48.700;9.316;2023-04-28T04:19:29;97443;;;12.76;100
17950;BME280;9100;48.700;9.316;2023-04-28T04:19:45;97448;;;12.77;100
17950;BME280;9100;48.700;9.316;2023-04-28T04:20:29;97449.7;;;12.77;100
17950;BME280;9100;48.700;9.316;2023-04-28T04:21:29;97434.3;;;12.77;100
17950;BME280;9100;48.700;9.316;2023-04-28T04:22:29;97440.3;;;12.77;100
17950;BME280;9100;48.700;9.316;2023-04-28T04:23:29;97438.7;;;12.76;100
17950;BME280;9100;48.700;9.316;2023-04-28T04:24:29;97437.09999999999;;;12.75;100
17950;BME280;9100;48.700;9.316;2023-04-28T04:24:45;97438.9;;;12.75;100
17950;BME280;9100;48.700;9.316;2023-04-28T04:25:29;97444;;;12.75;100
17950;BME280;9100;48.700;9.316;2023-04-28T04:26:29;97443.2;;;12.74;100
17950;BME280;9100;48.700;9.316;2023-04-28T04:27:29;97438.09999999999;;;12.74;100
17950;BME280;9100;48.700;9.316;2023-04-28T04:28:29;97441.5;;;12.75;100
17950;BME280;9100;48.700;9.316;2023-04-28T04:29:29;97442.2;;;12.75;100
17950;BME280;9100;48.700;9.316;2023-04-28T04:29:45;97444;;;12.75;100
17950;BME280;9100;48.700;9.316;2023-04-28T04:30:29;97438.7;;;12.76;100
17950;BME280;9100;48.700;9.316;2023-04-28T04:31:29;97435.29999999999;;;12.76;100
17950;BME280;9100;48.700;9.316;2023-04-28T04:32:29;97436.1;;;12.76;100
17950;BME280;9100;48.700;9.316;2023-04-28T04:33:29;97437.90000000001;;;12.76;100
17950;BME280;9100;48.700;9.316;2023-04-28T04:34:29;97433.6;;;12.76;100
17950;BME280;9100;48.700;9.316;2023-04-28T04:34:45;97432.8;;;12.76;100